createdAt,value
2018-11-25T00:00:18.718Z,25.00
2018-11-25T00:02:48.449Z,46.97
2018-11-25T00:05:17.257Z,37.90
2018-11-25T00:07:46.801Z,26.90
2018-11-25T00:10:16.037Z,30.87
2018-11-25T00:12:46.669Z,38.27
2018-11-25T00:15:15.661Z,24.37
2018-11-25T00:17:44.743Z,23.97
2018-11-25T00:20:13.868Z,24.33
2018-11-25T00:22:43.425Z,20.63
2018-11-25T00:25:13.354Z,26.23
2018-11-25T00:27:42.136Z,28.27
2018-11-25T00:30:12.312Z,34.93
2018-11-25T00:32:41.160Z,27.60
2018-11-25T00:35:11.014Z,25.50
2018-11-25T00:37:43.322Z,25.57
2018-11-25T00:40:11.686Z,25.40
2018-11-25T00:42:41.692Z,31.47
2018-11-25T00:45:15.599Z,28.10
2018-11-25T00:47:47.287Z,23.80
2018-11-25T00:50:23.512Z,26.77
2018-11-25T00:52:52.700Z,26.93
2018-11-25T00:55:21.318Z,23.90
2018-11-25T00:57:52.640Z,37.43
2018-11-25T01:00:21.934Z,27.60
2018-11-25T01:02:51.470Z,36.73
2018-11-25T01:05:20.157Z,27.90
2018-11-25T01:07:49.290Z,29.03
2018-11-25T01:10:18.228Z,29.80
2018-11-25T01:12:47.668Z,26.20
2018-11-25T01:15:17.259Z,29.10
2018-11-25T01:17:46.932Z,30.50
2018-11-25T01:20:17.188Z,30.63
2018-11-25T01:22:46.482Z,31.30
2018-11-25T01:25:15.608Z,26.17
2018-11-25T01:27:45.323Z,25.73
2018-11-25T01:30:15.138Z,22.80
2018-11-25T01:32:44.612Z,22.80
2018-11-25T01:35:13.763Z,22.80
2018-11-25T01:37:42.888Z,25.40
2018-11-25T01:40:14.650Z,23.80
2018-11-25T01:42:43.780Z,26.50
2018-11-25T01:45:15.144Z,26.63
2018-11-25T01:47:44.218Z,34.07
2018-11-25T01:50:17.846Z,25.80
2018-11-25T01:52:47.304Z,24.33
2018-11-25T01:55:18.646Z,23.73
2018-11-25T01:57:49.106Z,20.33
2018-11-25T02:00:21.606Z,27.20
2018-11-25T02:02:50.570Z,22.07
2018-11-25T02:05:19.142Z,21.37
2018-11-25T02:07:48.057Z,28.33
2018-11-25T02:10:17.764Z,18.73
2018-11-25T02:12:46.860Z,20.40
2018-11-25T02:15:16.593Z,25.33
2018-11-25T02:17:45.455Z,20.20
2018-11-25T02:20:19.450Z,24.37
2018-11-25T02:22:48.381Z,22.37
2018-11-25T02:25:17.541Z,21.57
2018-11-25T02:27:47.771Z,17.93
2018-11-25T02:30:17.285Z,25.87
2018-11-25T02:32:46.777Z,24.43
2018-11-25T02:35:16.335Z,24.57
2018-11-25T02:37:45.372Z,30.80
2018-11-25T02:40:15.987Z,26.57
2018-11-25T02:42:44.816Z,24.27
2018-11-25T02:45:14.741Z,25.27
2018-11-25T02:47:43.626Z,29.43
2018-11-25T02:50:27.645Z,26.33
2018-11-25T02:52:58.170Z,32.60
2018-11-25T02:55:27.473Z,26.57
2018-11-25T02:57:56.794Z,36.33
2018-11-25T03:00:26.193Z,31.57
2018-11-25T03:02:54.999Z,28.60
2018-11-25T03:05:25.157Z,32.13
2018-11-25T03:07:53.989Z,30.00
2018-11-25T03:10:22.891Z,26.67
2018-11-25T03:12:51.699Z,25.03
2018-11-25T03:15:20.454Z,33.37
2018-11-25T03:17:49.148Z,30.00
2018-11-25T03:20:18.447Z,29.40
2018-11-25T03:22:46.983Z,28.20
2018-11-25T03:25:18.740Z,30.37
2018-11-25T03:27:47.536Z,27.67
2018-11-25T03:30:18.541Z,25.73
2018-11-25T03:32:48.193Z,28.30
2018-11-25T03:35:17.103Z,27.03
2018-11-25T03:37:45.659Z,30.43
2018-11-25T03:40:15.523Z,27.33
2018-11-25T03:42:44.286Z,27.40
2018-11-25T03:45:14.262Z,30.20
2018-11-25T03:47:42.913Z,30.13
2018-11-25T03:50:12.374Z,28.30
2018-11-25T03:52:42.570Z,25.80
2018-11-25T03:55:14.959Z,33.73
2018-11-25T03:57:43.843Z,30.90
2018-11-25T04:00:16.355Z,28.57
2018-11-25T04:02:45.760Z,29.87
2018-11-25T04:05:15.638Z,31.20
2018-11-25T04:07:44.775Z,24.70
2018-11-25T04:10:15.510Z,27.80
2018-11-25T04:12:44.593Z,23.93
2018-11-25T04:15:15.601Z,27.17
2018-11-25T04:17:44.840Z,26.20
2018-11-25T04:20:18.211Z,26.70
2018-11-25T04:22:47.132Z,27.80
2018-11-25T04:25:15.783Z,26.37
2018-11-25T04:27:44.910Z,30.37
2018-11-25T04:30:17.211Z,27.20
2018-11-25T04:32:47.051Z,29.33
2018-11-25T04:35:15.594Z,28.13
2018-11-25T04:37:44.383Z,22.40
2018-11-25T04:40:15.061Z,27.90
2018-11-25T04:42:43.821Z,25.00
2018-11-25T04:45:15.343Z,27.97
2018-11-25T04:47:44.529Z,23.00
2018-11-25T04:50:16.081Z,25.93
2018-11-25T04:52:46.301Z,26.83
2018-11-25T04:55:14.879Z,25.43
2018-11-25T04:57:49.813Z,23.97
2018-11-25T05:00:18.781Z,26.87
2018-11-25T05:02:48.220Z,27.73
2018-11-25T05:05:17.261Z,40.10
2018-11-25T05:07:47.423Z,30.27
2018-11-25T05:10:17.005Z,27.33
2018-11-25T05:12:45.823Z,27.57
2018-11-25T05:15:15.709Z,26.03
2018-11-25T05:17:44.423Z,36.07
2018-11-25T05:20:13.718Z,29.90
2018-11-25T05:22:42.828Z,28.67
2018-11-25T05:25:14.605Z,31.37
2018-11-25T05:27:43.677Z,28.23
2018-11-25T05:30:16.315Z,31.80
2018-11-25T05:32:45.137Z,27.63
2018-11-25T05:35:15.755Z,30.80
2018-11-25T05:37:44.765Z,28.53
2018-11-25T05:40:14.377Z,29.70
2018-11-25T05:42:43.327Z,32.17
2018-11-25T05:45:14.511Z,30.50
2018-11-25T05:47:43.595Z,33.67
2018-11-25T05:50:13.889Z,34.07
2018-11-25T05:52:42.839Z,31.00
2018-11-25T05:55:12.076Z,32.43
2018-11-25T05:57:41.641Z,33.87
2018-11-25T06:00:12.783Z,30.37
2018-11-25T06:02:42.069Z,28.47
2018-11-25T06:05:11.380Z,32.37
2018-11-25T06:07:40.720Z,30.10
2018-11-25T06:10:12.570Z,37.90
2018-11-25T06:12:42.565Z,31.50
2018-11-25T06:15:14.159Z,30.90
2018-11-25T06:17:43.011Z,32.50
2018-11-25T06:20:14.740Z,39.63
2018-11-25T06:22:43.825Z,32.07
2018-11-25T06:25:15.183Z,34.17
2018-11-25T06:27:44.281Z,37.23
2018-11-25T06:30:14.316Z,29.20
2018-11-25T06:32:43.089Z,27.03
2018-11-25T06:35:12.877Z,38.37
2018-11-25T06:37:41.720Z,38.10
2018-11-25T06:40:14.363Z,31.87
2018-11-25T06:42:43.339Z,31.33
2018-11-25T06:45:18.534Z,30.10
2018-11-25T06:47:47.706Z,34.27
2018-11-25T06:50:16.353Z,36.23
2018-11-25T06:52:45.895Z,36.70
2018-11-25T06:55:14.420Z,35.97
2018-11-25T06:57:43.129Z,39.10
2018-11-25T07:00:16.050Z,28.93
2018-11-25T07:02:44.942Z,29.40
2018-11-25T07:05:13.489Z,42.70
2018-11-25T07:07:43.343Z,34.90
2018-11-25T07:10:14.487Z,32.87
2018-11-25T07:12:43.480Z,32.67
2018-11-25T07:15:14.954Z,28.63
2018-11-25T07:17:43.820Z,27.37
2018-11-25T07:20:14.722Z,33.80
2018-11-25T07:22:44.050Z,34.60
2018-11-25T07:25:15.966Z,33.73
2018-11-25T07:27:44.909Z,32.50
2018-11-25T07:30:14.940Z,33.53
2018-11-25T07:32:43.729Z,28.20
2018-11-25T07:35:12.600Z,29.37
2018-11-25T07:37:41.660Z,31.67
2018-11-25T07:40:13.114Z,31.97
2018-11-25T07:42:41.985Z,30.47
2018-11-25T07:45:12.201Z,34.33
2018-11-25T07:47:40.777Z,31.90
2018-11-25T07:50:11.173Z,31.57
2018-11-25T07:52:41.029Z,35.60
2018-11-25T07:55:17.434Z,40.20
2018-11-25T07:57:46.685Z,34.47
2018-11-25T08:00:18.911Z,37.50
2018-11-25T08:02:47.578Z,30.50
2018-11-25T08:05:21.682Z,35.50
2018-11-25T08:07:50.507Z,34.30
2018-11-25T08:10:19.043Z,33.53
2018-11-25T08:12:48.479Z,35.37
2018-11-25T08:15:18.161Z,39.00
2018-11-25T08:17:47.308Z,33.13
2018-11-25T08:20:16.989Z,34.20
2018-11-25T08:22:46.679Z,40.33
2018-11-25T08:25:18.130Z,37.47
2018-11-25T08:27:46.951Z,37.70
2018-11-25T08:30:20.469Z,36.13
2018-11-25T08:32:49.686Z,35.30
2018-11-25T08:35:18.864Z,34.73
2018-11-25T08:37:48.629Z,37.07
2018-11-25T08:40:25.596Z,38.47
2018-11-25T08:42:54.414Z,38.63
2018-11-25T08:45:23.006Z,40.10
2018-11-25T08:47:52.845Z,34.50
2018-11-25T08:50:21.473Z,34.83
2018-11-25T08:52:51.553Z,35.37
2018-11-25T08:55:23.410Z,41.00
2018-11-25T08:57:52.578Z,37.43
2018-11-25T09:00:22.160Z,34.07
2018-11-25T09:02:51.791Z,36.30
2018-11-25T09:05:21.405Z,34.53
2018-11-25T09:07:50.372Z,40.50
2018-11-25T09:10:20.767Z,42.97
2018-11-25T09:12:55.877Z,40.13
2018-11-25T09:15:22.753Z,33.80
2018-11-25T09:17:52.601Z,36.30
2018-11-25T09:20:22.173Z,39.10
2018-11-25T09:22:52.184Z,36.17
2018-11-25T09:25:23.380Z,40.97
2018-11-25T09:27:52.482Z,33.67
2018-11-25T09:30:22.213Z,39.27
2018-11-25T09:32:51.255Z,37.17
2018-11-25T09:35:19.899Z,41.03
2018-11-25T09:37:48.646Z,32.07
2018-11-25T09:40:18.413Z,38.93
2018-11-25T09:42:47.260Z,46.50
2018-11-25T09:45:17.934Z,41.20
2018-11-25T09:47:47.293Z,37.93
2018-11-25T09:50:17.434Z,39.13
2018-11-25T09:52:46.506Z,35.67
2018-11-25T09:55:21.061Z,36.00
2018-11-25T09:57:55.752Z,39.83
2018-11-25T10:00:27.573Z,36.30
2018-11-25T10:02:56.935Z,34.37
2018-11-25T10:05:28.250Z,38.07
2018-11-25T10:07:57.050Z,39.57
2018-11-25T10:10:26.546Z,35.00
2018-11-25T10:12:55.158Z,37.80
2018-11-25T10:15:26.359Z,33.20
2018-11-25T10:17:59.742Z,32.50
2018-11-25T10:20:26.178Z,34.37
2018-11-25T10:22:55.076Z,34.63
2018-11-25T10:25:24.873Z,33.27
2018-11-25T10:27:53.969Z,32.53
2018-11-25T10:30:24.908Z,36.53
2018-11-25T10:32:55.050Z,39.17
2018-11-25T10:35:24.038Z,38.10
2018-11-25T10:37:53.249Z,31.80
2018-11-25T10:40:23.180Z,35.13
2018-11-25T10:42:52.521Z,33.70
2018-11-25T10:45:27.376Z,34.13
2018-11-25T10:47:57.976Z,38.03
2018-11-25T10:50:26.556Z,39.13
2018-11-25T10:52:55.266Z,40.53
2018-11-25T10:55:24.038Z,33.13
2018-11-25T10:57:54.027Z,39.37
2018-11-25T11:00:32.733Z,35.93
2018-11-25T11:03:07.228Z,38.63
2018-11-25T11:05:41.030Z,38.93
2018-11-25T11:08:11.439Z,39.80
2018-11-25T11:10:39.963Z,38.43
2018-11-25T11:13:09.397Z,40.40
2018-11-25T11:15:38.851Z,41.60
2018-11-25T11:18:08.248Z,41.27
2018-11-25T11:20:38.285Z,44.27
2018-11-25T11:23:07.808Z,33.30
2018-11-25T11:25:36.338Z,38.07
2018-11-25T11:28:05.595Z,36.40
2018-11-25T11:30:34.186Z,39.13
2018-11-25T11:33:02.970Z,46.80
2018-11-25T11:35:31.566Z,39.83
2018-11-25T11:38:00.934Z,44.13
2018-11-25T11:40:29.522Z,39.73
2018-11-25T11:42:58.416Z,51.40
2018-11-25T11:45:27.001Z,38.30
2018-11-25T11:47:56.833Z,41.50
2018-11-25T11:50:25.432Z,43.13
2018-11-25T11:52:54.416Z,42.50
2018-11-25T11:55:22.986Z,44.43
2018-11-25T11:57:52.176Z,50.30
2018-11-25T12:00:25.316Z,43.70
2018-11-25T12:02:54.248Z,36.13
2018-11-25T12:05:23.007Z,40.47
2018-11-25T12:07:52.054Z,38.87
2018-11-25T12:10:21.365Z,41.00
2018-11-25T12:12:51.010Z,35.23
2018-11-25T12:15:30.627Z,38.00
2018-11-25T12:17:55.287Z,40.50
2018-11-25T12:20:24.732Z,41.70
2018-11-25T12:22:54.411Z,39.77
2018-11-25T12:25:23.246Z,44.90
2018-11-25T12:27:52.323Z,39.90
2018-11-25T12:30:22.034Z,44.70
2018-11-25T12:32:52.370Z,41.97
2018-11-25T12:35:21.007Z,43.33
2018-11-25T12:37:49.986Z,46.60
2018-11-25T12:40:21.856Z,39.13
2018-11-25T12:42:52.854Z,39.50
2018-11-25T12:45:21.668Z,39.70
2018-11-25T12:47:51.724Z,37.23
2018-11-25T12:50:22.453Z,41.03
2018-11-25T12:52:51.279Z,41.60
2018-11-25T12:55:21.153Z,41.10
2018-11-25T12:57:50.126Z,38.47
2018-11-25T13:00:20.392Z,39.67
2018-11-25T13:02:49.152Z,40.60
2018-11-25T13:05:18.414Z,38.53
2018-11-25T13:07:47.523Z,35.93
2018-11-25T13:10:16.206Z,40.30
2018-11-25T13:12:45.175Z,36.67
2018-11-25T13:15:13.926Z,37.73
2018-11-25T13:17:45.057Z,33.80
2018-11-25T13:20:15.701Z,38.10
2018-11-25T13:22:45.689Z,37.03
2018-11-25T13:25:15.767Z,38.17
2018-11-25T13:27:44.912Z,38.10
2018-11-25T13:30:21.989Z,35.37
2018-11-25T13:32:54.007Z,39.33
2018-11-25T13:35:23.325Z,40.57
2018-11-25T13:37:52.145Z,39.50
2018-11-25T13:40:20.732Z,41.53
2018-11-25T13:42:50.278Z,38.87
2018-11-25T13:45:19.298Z,36.77
2018-11-25T13:47:48.927Z,42.13
2018-11-25T13:50:19.418Z,40.90
2018-11-25T13:52:48.352Z,40.20
2018-11-25T13:55:24.780Z,47.70
2018-11-25T13:57:53.805Z,43.17
2018-11-25T14:00:29.013Z,42.63
2018-11-25T14:02:59.097Z,44.27
2018-11-25T14:05:30.972Z,43.90
2018-11-25T14:08:00.514Z,46.63
2018-11-25T14:10:31.971Z,43.00
2018-11-25T14:13:01.415Z,42.50
2018-11-25T14:15:30.532Z,42.50
2018-11-25T14:18:01.143Z,42.57
2018-11-25T14:20:31.131Z,37.50
2018-11-25T14:23:01.857Z,47.73
2018-11-25T14:25:31.134Z,44.03
2018-11-25T14:28:03.479Z,45.83
2018-11-25T14:30:32.954Z,43.80
2018-11-25T14:33:04.104Z,43.67
2018-11-25T14:35:33.430Z,45.10
2018-11-25T14:38:02.103Z,38.83
2018-11-25T14:40:32.698Z,48.40
2018-11-25T14:43:01.850Z,45.60
2018-11-25T14:45:30.698Z,47.93
2018-11-25T14:48:01.133Z,50.10
2018-11-25T14:50:30.793Z,48.73
2018-11-25T14:53:00.480Z,48.30
2018-11-25T14:55:29.928Z,51.07
2018-11-25T14:57:58.587Z,46.43
2018-11-25T15:00:27.733Z,45.37
2018-11-25T15:03:00.858Z,46.00
2018-11-25T15:05:47.634Z,49.60
2018-11-25T15:08:19.827Z,48.30
2018-11-25T15:10:49.418Z,42.63
2018-11-25T15:13:21.373Z,57.17
2018-11-25T15:15:51.139Z,49.07
2018-11-25T15:18:20.306Z,50.60
2018-11-25T15:20:48.888Z,52.10
2018-11-25T15:23:18.671Z,53.40
2018-11-25T15:25:51.118Z,50.33
2018-11-25T15:28:19.739Z,48.77
2018-11-25T15:30:48.394Z,43.77
2018-11-25T15:33:17.473Z,51.20
2018-11-25T15:35:46.663Z,49.67
2018-11-25T15:38:15.473Z,48.37
2018-11-25T15:40:44.400Z,50.73
2018-11-25T15:43:13.681Z,51.87
2018-11-25T15:45:42.406Z,44.90
2018-11-25T15:48:16.930Z,55.83
2018-11-25T15:50:47.855Z,51.33
2018-11-25T15:53:18.069Z,64.00
2018-11-25T15:55:47.515Z,51.77
2018-11-25T15:58:17.164Z,51.50
2018-11-25T16:00:45.733Z,53.57
2018-11-25T16:03:15.527Z,59.50
2018-11-25T16:05:46.047Z,64.33
2018-11-25T16:08:19.107Z,58.70
2018-11-25T16:10:47.922Z,59.70
2018-11-25T16:13:16.988Z,54.40
2018-11-25T16:15:45.643Z,49.07
2018-11-25T16:18:14.557Z,66.50
2018-11-25T16:20:43.141Z,58.97
2018-11-25T16:23:12.243Z,74.30
2018-11-25T16:25:48.891Z,77.73
2018-11-25T16:28:35.151Z,72.17
2018-11-25T16:31:03.742Z,75.33
2018-11-25T16:33:32.743Z,60.97
2018-11-25T16:36:01.665Z,56.83
2018-11-25T16:38:30.780Z,52.43
2018-11-25T16:40:59.645Z,59.70
2018-11-25T16:43:28.825Z,50.90
2018-11-25T16:45:58.181Z,47.23
2018-11-25T16:48:28.341Z,58.80
2018-11-25T16:50:57.063Z,51.40
2018-11-25T16:53:25.917Z,47.00
2018-11-25T16:55:55.265Z,46.50
2018-11-25T16:58:24.136Z,77.23
2018-11-25T17:00:52.692Z,117.90
2018-11-25T17:03:22.407Z,69.50
2018-11-25T17:05:52.289Z,55.47
2018-11-25T17:08:39.521Z,43.20
2018-11-25T17:11:08.711Z,53.03
2018-11-25T17:13:37.767Z,58.57
2018-11-25T17:16:07.541Z,62.37
2018-11-25T17:18:36.381Z,69.27
2018-11-25T17:21:05.529Z,65.80
2018-11-25T17:23:34.177Z,61.23
2018-11-25T17:26:03.177Z,70.73
2018-11-25T17:28:32.458Z,59.20
2018-11-25T17:31:02.114Z,56.30
2018-11-25T17:33:31.351Z,61.67
2018-11-25T17:36:00.315Z,57.67
2018-11-25T17:38:28.923Z,61.57
2018-11-25T17:40:57.897Z,55.03
2018-11-25T17:43:27.413Z,59.67
2018-11-25T17:45:56.295Z,57.97
2018-11-25T17:48:25.257Z,57.13
2018-11-25T17:50:54.068Z,49.07
2018-11-25T17:53:22.945Z,54.47
2018-11-25T17:55:52.341Z,46.57
2018-11-25T17:58:20.874Z,61.70
2018-11-25T18:00:56.375Z,50.03
2018-11-25T18:03:26.469Z,55.57
2018-11-25T18:05:55.736Z,61.47
2018-11-25T18:08:24.461Z,49.27
2018-11-25T18:10:54.222Z,59.40
2018-11-25T18:13:24.483Z,68.50
2018-11-25T18:15:54.663Z,56.50
2018-11-25T18:19:03.933Z,57.60
2018-11-25T18:21:32.873Z,50.67
2018-11-25T18:24:01.678Z,62.33
2018-11-25T18:26:30.482Z,59.30
2018-11-25T18:28:59.432Z,63.50
2018-11-25T18:31:28.237Z,54.13
2018-11-25T18:33:57.021Z,55.37
2018-11-25T18:36:25.669Z,54.07
2018-11-25T18:38:54.445Z,53.03
2018-11-25T18:41:23.097Z,52.30
2018-11-25T18:43:51.887Z,50.57
2018-11-25T18:46:20.622Z,67.20
2018-11-25T18:48:50.557Z,53.53
2018-11-25T18:51:19.641Z,54.70
2018-11-25T18:53:49.236Z,51.70
2018-11-25T18:56:20.060Z,51.07
2018-11-25T18:58:50.225Z,51.63
2018-11-25T19:01:25.052Z,47.83
2018-11-25T19:03:53.915Z,54.03
2018-11-25T19:06:22.509Z,48.23
2018-11-25T19:08:52.147Z,46.50
2018-11-25T19:11:20.722Z,48.17
2018-11-25T19:13:50.308Z,55.17
2018-11-25T19:16:19.140Z,47.50
2018-11-25T19:18:48.538Z,45.27
2018-11-25T19:21:17.719Z,50.73
2018-11-25T19:23:47.095Z,53.30
2018-11-25T19:26:16.047Z,45.73
2018-11-25T19:28:44.768Z,41.80
2018-11-25T19:31:14.084Z,50.93
2018-11-25T19:33:44.029Z,47.03
2018-11-25T19:36:12.864Z,51.10
2018-11-25T19:38:42.040Z,49.63
2018-11-25T19:41:11.302Z,55.07
2018-11-25T19:43:39.954Z,49.30
2018-11-25T19:46:08.667Z,44.63
2018-11-25T19:48:38.481Z,52.47
2018-11-25T19:51:08.057Z,47.40
2018-11-25T19:53:37.525Z,50.70
2018-11-25T19:56:06.325Z,55.80
2018-11-25T19:58:35.174Z,52.83
2018-11-25T20:01:04.226Z,55.17
2018-11-25T20:03:34.020Z,57.40
2018-11-25T20:06:02.781Z,63.27
2018-11-25T20:08:31.782Z,58.27
2018-11-25T20:11:00.538Z,64.27
2018-11-25T20:13:29.711Z,57.00
2018-11-25T20:16:03.640Z,63.67
2018-11-25T20:18:32.432Z,56.77
2018-11-25T20:21:06.488Z,52.50
2018-11-25T20:23:35.746Z,61.67
2018-11-25T20:26:04.362Z,56.57
2018-11-25T20:28:33.908Z,62.77
2018-11-25T20:31:02.592Z,61.80
2018-11-25T20:33:36.680Z,58.13
2018-11-25T20:36:06.063Z,62.10
2018-11-25T20:38:40.391Z,59.97
2018-11-25T20:41:09.768Z,54.60
2018-11-25T20:43:39.790Z,62.40
2018-11-25T20:46:13.833Z,59.97
2018-11-25T20:48:43.303Z,61.90
2018-11-25T20:51:11.951Z,69.13
2018-11-25T20:53:48.664Z,65.10
2018-11-25T20:56:17.365Z,71.00
2018-11-25T20:58:46.234Z,67.10
2018-11-25T21:01:14.850Z,69.67
2018-11-25T21:03:43.681Z,74.43
2018-11-25T21:06:12.503Z,75.57
2018-11-25T21:08:42.355Z,76.40
2018-11-25T21:11:11.410Z,83.40
2018-11-25T21:13:40.380Z,77.47
2018-11-25T21:16:09.288Z,73.57
2018-11-25T21:18:37.933Z,81.40
2018-11-25T21:21:07.588Z,102.57
2018-11-25T21:23:36.302Z,87.37
2018-11-25T21:26:05.640Z,83.17
2018-11-25T21:28:36.680Z,92.63
2018-11-25T21:31:05.950Z,89.27
2018-11-25T21:33:34.885Z,77.37
2018-11-25T21:36:03.422Z,78.70
2018-11-25T21:38:32.369Z,83.67
2018-11-25T21:41:00.939Z,84.00
2018-11-25T21:43:29.952Z,86.47
2018-11-25T21:45:58.834Z,79.17
2018-11-25T21:48:30.078Z,89.50
2018-11-25T21:50:59.121Z,105.07
2018-11-25T21:53:28.172Z,83.87
2018-11-25T21:55:56.832Z,81.37
2018-11-25T21:58:28.762Z,82.17
2018-11-25T22:00:54.610Z,82.90
2018-11-25T22:03:23.351Z,80.73
2018-11-25T22:05:51.950Z,83.23
2018-11-25T22:08:20.533Z,83.37
2018-11-25T22:10:50.272Z,81.73
2018-11-25T22:13:19.147Z,87.83
2018-11-25T22:15:48.654Z,77.97
2018-11-25T22:18:18.284Z,75.50
2018-11-25T22:20:47.524Z,79.20
2018-11-25T22:23:16.322Z,87.90
2018-11-25T22:25:44.893Z,92.27
2018-11-25T22:28:14.081Z,86.43
2018-11-25T22:30:43.201Z,95.87
2018-11-25T22:33:12.508Z,84.70
2018-11-25T22:35:41.390Z,101.33
2018-11-25T22:38:09.936Z,89.23
2018-11-25T22:40:39.036Z,89.33
2018-11-25T22:43:07.626Z,81.07
2018-11-25T22:45:36.724Z,91.53
2018-11-25T22:48:06.560Z,83.30
2018-11-25T22:50:35.536Z,75.13
2018-11-25T22:53:04.356Z,85.07
2018-11-25T22:55:33.302Z,73.27
2018-11-25T22:58:02.203Z,84.57
2018-11-25T23:00:33.205Z,101.10
2018-11-25T23:03:02.236Z,90.00
2018-11-25T23:05:42.030Z,79.73
2018-11-25T23:08:10.817Z,85.90
2018-11-25T23:10:39.380Z,91.80
2018-11-25T23:13:08.444Z,79.90
2018-11-25T23:15:37.162Z,90.33
2018-11-25T23:18:05.780Z,84.43
2018-11-25T23:20:34.910Z,83.63
2018-11-25T23:23:03.450Z,77.83
2018-11-25T23:25:32.293Z,87.87
2018-11-25T23:28:00.900Z,74.10
2018-11-25T23:30:30.085Z,74.10
2018-11-25T23:32:58.965Z,82.20
2018-11-25T23:35:29.261Z,81.77
2018-11-25T23:37:57.938Z,88.37
2018-11-25T23:40:26.854Z,91.17
2018-11-25T23:42:55.474Z,86.53
2018-11-25T23:45:24.218Z,97.50
2018-11-25T23:47:53.372Z,86.63
2018-11-25T23:50:22.628Z,81.07
2018-11-25T23:52:51.793Z,94.13
2018-11-25T23:55:20.413Z,98.17
2018-11-25T23:57:49.487Z,96.70
